| time (UTC) | temp C | wind direction | speed KPH | gust KPH | rain 1hr cm | rain 24hr cm | rain mn cm | humidity % | barometer mb |
| 20260507032018 | 15 | 68 | 4.8 | 11.3 | 0.00 | 0.23 | 0.23 | 93 | 1012.3 |
| 20260507031037 | 15 | 45 | 4.8 | 17.7 | 0.00 | 0.23 | 0.23 | 93 | 1011.9 |
| 20260507030038 | 15 | 23 | 3.2 | 11.3 | 0.00 | 0.23 | 0.23 | 92 | 1011.8 |
| 20260507025037 | 15 | 45 | 3.2 | 9.7 | 0.00 | 0.23 | 0.23 | 92 | 1012.1 |
| 20260507024017 | 15 | 68 | 3.2 | 17.7 | 0.00 | 0.23 | 0.23 | 92 | 1011.5 |
| 20260507023017 | 15 | 23 | 6.4 | 19.3 | 0.00 | 0.23 | 0.23 | 92 | 1011.2 |
| 20260507022037 | 15 | 68 | 4.8 | 12.9 | 0.00 | 0.23 | 0.23 | 91 | 1010.9 |
| 20260507021017 | 15 | 0 | 3.2 | 11.3 | 0.00 | 0.23 | 0.23 | 92 | 1011.1 |
| 20260507020017 | 15 | 0 | 4.8 | 16.1 | 0.00 | 0.23 | 0.23 | 91 | 1011.0 |
| 20260507015037 | 15 | 0 | 4.8 | 14.5 | 0.00 | 0.23 | 0.23 | 91 | 1011.2 |
| 20260507014016 | 15 | 0 | 4.8 | 14.5 | 0.00 | 0.23 | 0.23 | 91 | 1011.0 |
| 20260507013017 | 15 | 23 | 4.8 | 9.7 | 0.00 | 0.23 | 0.23 | 91 | 1010.9 |
| 20260507012017 | 15 | 45 | 3.2 | 11.3 | 0.00 | 0.23 | 0.23 | 91 | 1011.0 |
| 20260507011017 | 15 | 23 | 4.8 | 14.5 | 0.00 | 0.23 | 0.23 | 91 | 1010.4 |
| 20260507010016 | 15 | 0 | 3.2 | 9.7 | 0.00 | 0.23 | 0.23 | 91 | 1010.1 |
| 20260507005017 | 15 | 23 | 3.2 | 11.3 | 0.00 | 0.23 | 0.23 | 91 | 1010.2 |
| 20260507004016 | 15 | 0 | 3.2 | 9.7 | 0.00 | 0.23 | 0.23 | 91 | 1010.0 |
| 20260507003016 | 15 | 45 | 3.2 | 11.3 | 0.00 | 0.23 | 0.23 | 91 | 1010.0 |
| 20260507002017 | 15 | 23 | 3.2 | 9.7 | 0.00 | 0.23 | 0.23 | 90 | 1009.6 |
| 20260507001017 | 15 | 23 | 4.8 | 11.3 | 0.00 | 0.23 | 0.23 | 90 | 1009.8 |
| 20260507000037 | 15 | 23 | 4.8 | 14.5 | 0.00 | 0.23 | 0.23 | 90 | 1009.7 |
| 20260506235057 | 15 | 0 | 4.8 | 14.5 | 0.00 | 0.23 | 0.23 | 90 | 1009.8 |
| 20260506234016 | 15 | 23 | 4.8 | 14.5 | 0.00 | 0.23 | 0.23 | 90 | 1009.4 |
| 20260506233016 | 15 | 23 | 8.0 | 19.3 | 0.00 | 0.23 | 0.23 | 89 | 1009.1 |
| 20260506232016 | 15 | 23 | 4.8 | 11.3 | 0.00 | 0.23 | 0.23 | 89 | 1009.0 |
| 20260506231017 | 15 | 0 | 6.4 | 16.1 | 0.00 | 0.23 | 0.23 | 90 | 1009.2 |
| 20260506230016 | 16 | 23 | 6.4 | 17.7 | 0.00 | 0.23 | 0.23 | 89 | 1009.4 |
| 20260506225016 | 16 | 0 | 6.4 | 17.7 | 0.00 | 0.23 | 0.23 | 89 | 1009.3 |
| 20260506224056 | 16 | 0 | 6.4 | 16.1 | 0.00 | 0.23 | 0.23 | 89 | 1009.4 |
| 20260506223036 | 16 | 0 | 6.4 | 17.7 | 0.00 | 0.23 | 0.23 | 88 | 1008.9 |
| 20260506222016 | 16 | 23 | 6.4 | 17.7 | 0.00 | 0.23 | 0.23 | 88 | 1009.2 |
| 20260506221016 | 16 | 0 | 4.8 | 17.7 | 0.00 | 0.23 | 0.23 | 87 | 1009.1 |
| 20260506220016 | 16 | 0 | 6.4 | 14.5 | 0.00 | 0.23 | 0.23 | 87 | 1009.3 |
| 20260506215037 | 17 | 23 | 8.0 | 22.5 | 0.00 | 0.23 | 0.23 | 86 | 1009.2 |
| 20260506214016 | 17 | 23 | 6.4 | 16.1 | 0.00 | 0.23 | 0.23 | 87 | 1009.3 |
| 20260506213036 | 17 | 0 | 6.4 | 17.7 | 0.00 | 0.23 | 0.23 | 87 | 1009.1 |
| 20260506212036 | 17 | 0 | 8.0 | 17.7 | 0.00 | 0.23 | 0.23 | 87 | 1009.2 |
| 20260506211016 | 17 | 23 | 6.4 | 22.5 | 0.00 | 0.23 | 0.23 | 87 | 1009.2 |
| 20260506210016 | 17 | 0 | 8.0 | 16.1 | 0.00 | 0.23 | 0.23 | 87 | 1009.4 |
| 20260506205016 | 17 | 0 | 8.0 | 19.3 | 0.00 | 0.23 | 0.23 | 85 | 1009.3 |
| 20260506204016 | 18 | 0 | 8.0 | 17.7 | 0.00 | 0.23 | 0.23 | 84 | 1009.5 |
| 20260506203016 | 18 | 23 | 8.0 | 16.1 | 0.00 | 0.23 | 0.23 | 84 | 1009.5 |
| 20260506202016 | 20 | 23 | 8.0 | 22.5 | 0.00 | 0.23 | 0.23 | 80 | 1009.7 |
| 20260506201016 | 18 | 23 | 8.0 | 19.3 | 0.00 | 0.23 | 0.23 | 84 | 1009.5 |
| 20260506200036 | 18 | 0 | 8.0 | 17.7 | 0.00 | 0.23 | 0.23 | 85 | 1009.4 |
| 20260506195017 | 18 | 0 | 6.4 | 17.7 | 0.00 | 0.23 | 0.23 | 88 | 1009.5 |
| 20260506194016 | 17 | 338 | 8.0 | 17.7 | 0.00 | 0.23 | 0.23 | 86 | 1009.4 |
| 20260506193019 | 18 | 0 | 8.0 | 19.3 | 0.00 | 0.23 | 0.23 | 86 | 1009.4 |
| 20260506192038 | 18 | 0 | 6.4 | 14.5 | 0.00 | 0.23 | 0.23 | 86 | 1009.4 |
| 20260506191018 | 18 | 0 | 6.4 | 16.1 | 0.00 | 0.23 | 0.23 | 86 | 1009.5 |
| 20260506190018 | 18 | 0 | 8.0 | 19.3 | 0.00 | 0.23 | 0.23 | 85 | 1009.9 |
| 20260506185018 | 20 | 315 | 6.4 | 17.7 | 0.00 | 0.23 | 0.23 | 84 | 1009.7 |
| 20260506184017 | 20 | 0 | 8.0 | 17.7 | 0.00 | 0.23 | 0.23 | 83 | 1009.7 |
| 20260506183018 | 21 | 0 | 6.4 | 17.7 | 0.00 | 0.23 | 0.23 | 82 | 1010.0 |
| 20260506182038 | 21 | 0 | 6.4 | 16.1 | 0.00 | 0.23 | 0.23 | 82 | 1010.1 |
| 20260506181019 | 22 | 23 | 4.8 | 9.7 | 0.00 | 0.23 | 0.23 | 81 | 1010.2 |
| 20260506180018 | 22 | 23 | 6.4 | 14.5 | 0.00 | 0.23 | 0.23 | 82 | 1010.0 |
| 20260506175017 | 22 | 0 | 6.4 | 16.1 | 0.00 | 0.23 | 0.23 | 86 | 1010.1 |
| 20260506174018 | 22 | 0 | 4.8 | 16.1 | 0.00 | 0.23 | 0.23 | 90 | 1010.1 |
| 20260506173037 | 21 | 338 | 6.4 | 14.5 | 0.00 | 0.23 | 0.23 | 93 | 1010.1 |
| 20260506172017 | 20 | 0 | 4.8 | 12.9 | 0.00 | 0.23 | 0.23 | 94 | 1009.8 |
| 20260506171017 | 20 | 0 | 4.8 | 11.3 | 0.00 | 0.23 | 0.23 | 94 | 1009.5 |
| 20260506170017 | 19 | 0 | 4.8 | 11.3 | 0.00 | 0.23 | 0.23 | 94 | 1009.2 |
| 20260506165017 | 19 | 23 | 4.8 | 8.0 | 0.00 | 0.23 | 0.23 | 94 | 1009.4 |
| 20260506164118 | 19 | 45 | 3.2 | 8.0 | 0.00 | 0.23 | 0.23 | 94 | 1009.2 |
| 20260506163017 | 18 | 45 | 3.2 | 8.0 | 0.00 | 0.23 | 0.23 | 94 | 1008.9 |
| 20260506162017 | 18 | 45 | 4.8 | 8.0 | 0.00 | 0.23 | 0.23 | 94 | 1008.7 |
| 20260506161017 | 18 | 45 | 4.8 | 14.5 | 0.00 | 0.23 | 0.23 | 94 | 1008.7 |
| 20260506160017 | 18 | 23 | 6.4 | 17.7 | 0.00 | 0.23 | 0.23 | 94 | 1008.7 |
| 20260506155058 | 18 | 23 | 6.4 | 16.1 | 0.13 | 0.23 | 0.23 | 94 | 1008.7 |
| 20260506154017 | 18 | 0 | 8.0 | 17.7 | 0.13 | 0.23 | 0.23 | 94 | 1008.6 |
| 20260506153017 | 18 | 0 | 8.0 | 20.9 | 0.13 | 0.23 | 0.23 | 93 | 1008.5 |
| 20260506152017 | 18 | 0 | 8.0 | 20.9 | 0.13 | 0.23 | 0.23 | 93 | 1008.9 |
| 20260506151038 | 19 | 23 | 4.8 | 14.5 | 0.13 | 0.23 | 0.23 | 94 | 1008.9 |
| 20260506150017 | 19 | 315 | 8.0 | 20.9 | 0.15 | 0.23 | 0.23 | 93 | 1009.0 |
| 20260506145017 | 22 | 203 | 4.8 | 20.9 | 0.03 | 0.10 | 0.10 | 94 | 1009.5 |
| 20260506144017 | 22 | 158 | 1.6 | 6.4 | 0.05 | 0.10 | 0.10 | 94 | 1008.9 |
| 20260506143016 | 22 | 0.0 | 3.2 | 0.05 | 0.10 | 0.10 | 95 | 1008.8 | |
| 20260506142017 | 22 | 0.0 | 1.6 | 0.08 | 0.10 | 0.10 | 94 | 1008.7 | |
| 20260506141017 | 22 | 0.0 | 3.2 | 0.08 | 0.10 | 0.10 | 94 | 1008.7 | |
| 20260506140017 | 22 | 0.0 | 0.0 | 0.05 | 0.08 | 0.08 | 94 | 1008.7 | |
| 20260506135017 | 22 | 0.0 | 4.8 | 0.05 | 0.08 | 0.08 | 94 | 1008.8 | |
| 20260506134038 | 22 | 0.0 | 1.6 | 0.03 | 0.05 | 0.05 | 94 | 1008.6 | |
| 20260506133017 | 22 | 113 | 1.6 | 8.0 | 0.03 | 0.05 | 0.05 | 94 | 1008.0 |
| 20260506132037 | 22 | 135 | 1.6 | 6.4 | 0.03 | 0.03 | 0.03 | 94 | 1007.4 |
| 20260506131017 | 22 | 135 | 1.6 | 8.0 | 0.03 | 0.03 | 0.03 | 94 | 1007.3 |
| 20260506130017 | 22 | 0.0 | 6.4 | 0.03 | 0.03 | 0.03 | 94 | 1007.3 | |
| 20260506125037 | 22 | 135 | 1.6 | 6.4 | 0.03 | 0.03 | 0.03 | 94 | 1007.3 |
| 20260506124017 | 22 | 0.0 | 3.2 | 0.03 | 0.03 | 0.03 | 94 | 1007.4 | |
| 20260506123017 | 22 | 135 | 1.6 | 4.8 | 0.03 | 0.03 | 0.03 | 94 | 1007.2 |
| 20260506122016 | 22 | 135 | 1.6 | 4.8 | 0.00 | 0.00 | 0.00 | 94 | 1007.0 |
| 20260506121017 | 22 | 158 | 1.6 | 6.4 | 0.00 | 0.00 | 0.00 | 94 | 1007.2 |
| 20260506120017 | 22 | 158 | 1.6 | 8.0 | 0.00 | 0.00 | 0.00 | 94 | 1007.1 |
| 20260506115017 | 22 | 135 | 1.6 | 6.4 | 0.00 | 0.00 | 0.00 | 94 | 1007.1 |
| 20260506114016 | 22 | 113 | 1.6 | 6.4 | 0.00 | 0.00 | 0.00 | 94 | 1007.2 |
| 20260506113037 | 22 | 0.0 | 4.8 | 0.00 | 0.00 | 0.00 | 94 | 1007.2 | |
| 20260506112016 | 22 | 158 | 1.6 | 9.7 | 0.00 | 0.00 | 0.00 | 94 | 1007.4 |
| 20260506111016 | 22 | 158 | 1.6 | 11.3 | 0.00 | 0.00 | 0.00 | 94 | 1007.4 |
| 20260506110036 | 22 | 158 | 1.6 | 9.7 | 0.00 | 0.00 | 0.00 | 94 | 1007.5 |
| 20260506105017 | 22 | 203 | 1.6 | 4.8 | 0.00 | 0.00 | 0.00 | 94 | 1007.6 |
| 20260506104016 | 22 | 135 | 1.6 | 8.0 | 0.00 | 0.00 | 0.00 | 94 | 1007.5 |
| 20260506103017 | 22 | 135 | 1.6 | 4.8 | 0.00 | 0.00 | 0.00 | 94 | 1007.6 |
| 20260506102016 | 22 | 135 | 3.2 | 11.3 | 0.00 | 0.00 | 0.00 | 94 | 1007.4 |
| 20260506101016 | 22 | 135 | 3.2 | 11.3 | 0.00 | 0.00 | 0.00 | 93 | 1007.2 |
| 20260506100016 | 22 | 180 | 3.2 | 11.3 | 0.00 | 0.00 | 0.00 | 93 | 1007.2 |
| 20260506095037 | 22 | 135 | 3.2 | 8.0 | 0.00 | 0.00 | 0.00 | 93 | 1007.5 |
| 20260506094017 | 22 | 135 | 3.2 | 11.3 | 0.00 | 0.00 | 0.00 | 93 | 1007.5 |
| 20260506093016 | 22 | 135 | 3.2 | 8.0 | 0.00 | 0.00 | 0.00 | 93 | 1007.4 |
| 20260506092016 | 22 | 135 | 1.6 | 11.3 | 0.00 | 0.00 | 0.00 | 93 | 1007.4 |
| 20260506091016 | 22 | 158 | 1.6 | 8.0 | 0.00 | 0.00 | 0.00 | 93 | 1007.5 |
| 20260506090016 | 22 | 135 | 3.2 | 11.3 | 0.00 | 0.00 | 0.00 | 93 | 1007.2 |
| 20260506085016 | 22 | 135 | 3.2 | 9.7 | 0.00 | 0.00 | 0.00 | 93 | 1007.1 |
| 20260506084036 | 22 | 135 | 3.2 | 11.3 | 0.00 | 0.00 | 0.00 | 92 | 1007.0 |
| 20260506083016 | 22 | 135 | 4.8 | 12.9 | 0.00 | 0.00 | 0.00 | 92 | 1006.9 |
| 20260506082016 | 22 | 135 | 3.2 | 12.9 | 0.00 | 0.00 | 0.00 | 92 | 1006.8 |
| 20260506081016 | 22 | 135 | 4.8 | 14.5 | 0.00 | 0.00 | 0.00 | 92 | 1006.8 |
| 20260506073016 | 23 | 135 | 6.4 | 17.7 | 0.00 | 0.00 | 0.00 | 92 | 1007.1 |
| 20260506072016 | 23 | 135 | 3.2 | 9.7 | 0.00 | 0.00 | 0.00 | 92 | 1006.9 |
| 20260506071018 | 23 | 135 | 3.2 | 12.9 | 0.00 | 0.00 | 0.00 | 92 | 1007.0 |
| 20260506062019 | 23 | 135 | 3.2 | 14.5 | 0.00 | 0.00 | 0.00 | 91 | 1007.3 |
| 20260506061018 | 23 | 135 | 3.2 | 14.5 | 0.00 | 0.00 | 0.00 | 91 | 1007.3 |
| 20260506051017 | 22 | 135 | 1.6 | 6.4 | 0.00 | 0.00 | 0.00 | 89 | 1006.9 |
| 20260506045017 | 22 | 0.0 | 3.2 | 0.00 | 0.00 | 0.00 | 89 | 1006.7 | |
| 20260506044037 | 22 | 0.0 | 3.2 | 0.00 | 0.00 | 0.00 | 89 | 1006.6 | |
| 20260506043016 | 22 | 0.0 | 3.2 | 0.00 | 0.00 | 0.00 | 89 | 1006.7 | |
| 20260506042017 | 22 | 0.0 | 1.6 | 0.00 | 0.00 | 0.00 | 88 | 1006.4 | |
| 20260506041018 | 22 | 0.0 | 1.6 | 0.00 | 0.00 | 0.00 | 88 | 1006.5 | |
| 20260506040017 | 22 | 0.0 | 3.2 | 0.00 | 0.00 | 0.00 | 87 | 1006.2 | |
| 20260506035017 | 22 | 0.0 | 0.0 | 0.00 | 0.00 | 0.00 | 86 | 1006.2 | |
| 20260506034016 | 22 | 0.0 | 0.0 | 0.00 | 0.00 | 0.00 | 85 | 1006.2 | |
| 20260506033016 | 22 | 0.0 | 0.0 | 0.00 | 0.00 | 0.00 | 84 | 1006.1 |